Hurlburt Field, Florida
Current Conditions -  °F | °C
As of 5:58 AM on Friday 19 Dec 2014 (Local Time) from KHRT Reporting Station
Overcast Overcast  
Wind Chill: 53°   Ceiling: 3600
Heat Index: 53°   Visibility: 10mi
Dew Point: 34°   Wind: 5mph
Humidity: 48%   Direction: 60°ENE
Pressure: 30.12"   Gusts: NA
Location:  30.43°N, 86.69°W
Report Text: KHRT 191158Z AUTO 06004KT 10SM OVC036 12/01 A3012 RMK AO2 SLP201 T01180012 10120 20098 53001 $
Loading
Personal Weather Stations






























Interactive Weather Map New forecast layout! Learn more

10-Day Weather Forecast

Advertisements
Track Severe Weather on mobile